Time;durP1;ratioP1;P1;durP2;ratioP2;P2;SDS_P1;SDS_P2;PMS_P1;PMS_P2;Temp;Humidity;BMP_temperature;BMP_pressure;BME280_temperature;BME280_humidity;BME280_pressure;Samples;Min_cycle;Max_cycle;Signal;HPM_P1;HPM_P2
2023/10/29 00:01:31;;;;;;;7.18;2.67;;;;;;;11.92;82.11;96739.91;4990097;28;20585;-46
2023/10/29 00:03:57;;;;;;;4.97;1.65;;;;;;;11.90;82.77;96736.56;4989052;28;20104;-44
2023/10/29 00:06:24;;;;;;;4.40;1.65;;;;;;;11.88;83.01;96748.78;4990642;28;20042;-49
2023/10/29 00:08:51;;;;;;;2.28;0.98;;;;;;;11.83;81.90;96747.31;4991080;28;20050;-46
2023/10/29 00:11:18;;;;;;;4.63;1.05;;;;;;;11.82;81.69;96750.84;4990002;28;20041;-43
2023/10/29 00:13:44;;;;;;;4.35;1.30;;;;;;;11.79;81.94;96751.00;4990249;28;20053;-42
2023/10/29 00:16:11;;;;;;;1.90;1.05;;;;;;;11.76;81.64;96746.00;4990245;28;20054;-46
2023/10/29 00:18:39;;;;;;;2.88;0.82;;;;;;;11.73;81.93;96756.59;4990303;28;20104;-47
2023/10/29 00:21:06;;;;;;;1.15;0.85;;;;;;;11.71;81.64;96748.06;4990961;28;20148;-48
2023/10/29 00:23:33;;;;;;;1.42;0.77;;;;;;;11.66;81.71;96748.31;4986906;28;20046;-44
2023/10/29 00:26:01;;;;;;;1.23;0.50;;;;;;;11.65;81.27;96759.63;4989864;28;20074;-46
2023/10/29 00:28:28;;;;;;;1.05;0.52;;;;;;;11.60;81.34;96760.84;4990428;28;20054;-44
2023/10/29 00:30:55;;;;;;;1.60;0.63;;;;;;;11.59;82.24;96748.81;4982441;28;20130;-44
2023/10/29 00:33:22;;;;;;;2.78;0.90;;;;;;;11.54;81.50;96752.50;4970035;28;20050;-48
2023/10/29 00:35:50;;;;;;;4.43;0.65;;;;;;;11.54;81.57;96762.03;4966973;28;20062;-45
2023/10/29 00:38:17;;;;;;;2.00;0.88;;;;;;;11.51;81.88;96747.50;4970266;28;20101;-47
2023/10/29 00:40:43;;;;;;;2.35;0.85;;;;;;;11.52;81.22;96753.53;4968187;28;20053;-45
2023/10/29 00:43:14;;;;;;;2.25;0.35;;;;;;;11.53;81.59;96756.03;4964990;28;20057;-43
2023/10/29 00:45:42;;;;;;;2.47;0.70;;;;;;;11.51;82.59;96751.84;4962353;28;20059;-46
2023/10/29 00:48:11;;;;;;;2.53;0.75;;;;;;;11.51;82.20;96757.88;4962459;28;20602;-44
2023/10/29 00:50:39;;;;;;;1.40;0.98;;;;;;;11.53;82.64;96758.63;4969031;28;20050;-49
2023/10/29 00:53:06;;;;;;;1.52;0.80;;;;;;;11.54;81.62;96757.69;4969519;28;20051;-42
2023/10/29 00:55:34;;;;;;;2.95;0.70;;;;;;;11.56;81.36;96758.41;4963872;28;20826;-48
2023/10/29 00:58:01;;;;;;;4.05;1.75;;;;;;;11.57;81.63;96762.69;4969675;28;20506;-46
2023/10/29 01:00:27;;;;;;;3.85;1.00;;;;;;;11.59;81.37;96759.16;4964432;28;20051;-49
2023/10/29 01:02:54;;;;;;;2.35;0.80;;;;;;;11.60;81.35;96755.66;4964190;28;20047;-45
2023/10/29 01:05:22;;;;;;;2.15;0.70;;;;;;;11.60;81.34;96756.50;4964701;28;20134;-46
2023/10/29 01:07:49;;;;;;;2.85;1.15;;;;;;;11.59;81.74;96759.16;4963238;28;20070;-47
2023/10/29 01:10:15;;;;;;;2.33;1.48;;;;;;;11.57;81.55;96752.31;4970091;28;20054;-50
2023/10/29 01:12:44;;;;;;;3.83;0.88;;;;;;;11.59;82.01;96764.34;4965912;28;20046;-45
2023/10/29 01:15:10;;;;;;;4.07;2.38;;;;;;;11.55;81.09;96764.53;4963391;28;20051;-48
2023/10/29 01:17:38;;;;;;;4.07;1.20;;;;;;;11.54;81.65;96762.88;4964337;28;20042;-49
2023/10/29 01:20:05;;;;;;;3.58;1.15;;;;;;;11.52;81.29;96767.31;4970404;28;20050;-48
2023/10/29 01:22:33;;;;;;;4.60;0.82;;;;;;;11.52;81.65;96769.06;4970651;28;20149;-46
2023/10/29 01:25:05;;;;;;;5.07;1.25;;;;;;;11.50;81.82;96774.34;4965269;28;20047;-51
2023/10/29 01:27:47;;;;;;;5.30;0.90;;;;;;;11.46;81.76;96774.63;4957778;28;20070;-45
2023/10/29 01:30:15;;;;;;;3.13;0.75;;;;;;;11.46;81.41;96779.78;4965143;28;20050;-47
2023/10/29 01:32:42;;;;;;;3.45;0.77;;;;;;;11.44;82.36;96782.47;4959501;28;20043;-48
2023/10/29 01:35:10;;;;;;;6.10;1.45;;;;;;;11.42;81.94;96779.16;4965159;28;20496;-42
2023/10/29 01:37:37;;;;;;;6.70;2.13;;;;;;;11.40;82.09;96789.59;4968844;28;20431;-46
2023/10/29 01:40:05;;;;;;;4.07;0.93;;;;;;;11.39;81.40;96787.91;4965225;28;20073;-47
2023/10/29 01:42:33;;;;;;;4.07;1.40;;;;;;;11.39;82.38;96794.88;4964117;28;20039;-47
2023/10/29 01:45:02;;;;;;;2.47;0.70;;;;;;;11.37;80.91;96788.94;4965531;28;20133;-49
2023/10/29 01:47:30;;;;;;;5.35;0.68;;;;;;;11.34;82.06;96802.09;4964471;28;20051;-48
2023/10/29 01:49:57;;;;;;;5.65;0.60;;;;;;;11.34;81.42;96796.91;4967608;28;20051;-53
2023/10/29 01:52:25;;;;;;;3.95;0.88;;;;;;;11.32;81.57;96797.81;4968986;28;20493;-50
2023/10/29 01:54:52;;;;;;;1.88;0.68;;;;;;;11.31;81.49;96803.94;4965291;28;20065;-52
2023/10/29 01:57:19;;;;;;;2.30;0.82;;;;;;;11.30;82.05;96811.78;4964479;28;20138;-50
2023/10/29 01:59:47;;;;;;;4.88;0.80;;;;;;;11.28;82.06;96811.88;4969871;28;20105;-45
2023/10/29 02:02:14;;;;;;;2.88;0.85;;;;;;;11.27;82.13;96812.81;4979032;28;20105;-44
2023/10/29 02:04:41;;;;;;;5.55;0.82;;;;;;;11.25;81.96;96819.00;4983750;28;20057;-48
2023/10/29 02:07:07;;;;;;;1.20;0.70;;;;;;;11.24;82.24;96828.50;4979679;28;20046;-46
2023/10/29 02:09:34;;;;;;;6.40;1.38;;;;;;;11.20;81.59;96827.03;4986575;28;20053;-51
2023/10/29 02:12:01;;;;;;;4.95;0.90;;;;;;;11.19;81.95;96830.53;4980402;28;20046;-50
2023/10/29 02:14:28;;;;;;;6.78;0.93;;;;;;;11.18;81.02;96839.25;4984448;28;20064;-45
2023/10/29 02:16:55;;;;;;;7.53;1.08;;;;;;;11.13;81.75;96830.88;4986971;28;20101;-46
2023/10/29 02:19:22;;;;;;;5.10;1.20;;;;;;;11.13;82.24;96842.09;4983090;28;20504;-49
2023/10/29 02:21:53;;;;;;;7.03;0.90;;;;;;;11.11;81.79;96833.56;4987404;28;20054;-48
2023/10/29 02:24:20;;;;;;;4.25;0.88;;;;;;;11.11;81.90;96848.28;4988109;28;20050;-50
2023/10/29 02:26:46;;;;;;;5.55;1.33;;;;;;;11.08;81.62;96848.44;4988053;28;20687;-48
2023/10/29 02:29:13;;;;;;;4.53;1.00;;;;;;;11.07;81.30;96851.97;4987578;28;20487;-47
2023/10/29 02:31:40;;;;;;;6.15;1.50;;;;;;;11.04;82.09;96858.13;4985477;28;20039;-48
2023/10/29 02:34:07;;;;;;;4.93;0.50;;;;;;;11.04;81.24;96860.72;4982637;28;20431;-48
2023/10/29 02:36:33;;;;;;;4.20;1.13;;;;;;;11.01;80.86;96859.13;4983573;28;20053;-49
2023/10/29 02:39:00;;;;;;;7.75;1.02;;;;;;;11.00;81.74;96869.59;4982860;28;20043;-46
2023/10/29 02:41:27;;;;;;;4.40;0.90;;;;;;;10.99;81.64;96860.16;4979760;28;20062;-47
2023/10/29 02:43:55;;;;;;;2.65;2.35;;;;;;;10.97;81.00;96870.59;4985490;28;20408;-48
2023/10/29 02:46:21;;;;;;;5.22;0.75;;;;;;;10.96;81.33;96866.34;4976549;28;20097;-48
2023/10/29 02:48:48;;;;;;;6.55;1.25;;;;;;;10.95;81.10;96869.84;4987858;28;20046;-46
2023/10/29 02:51:15;;;;;;;5.18;1.00;;;;;;;10.94;81.02;96873.34;4986263;28;20073;-50
2023/10/29 02:53:42;;;;;;;2.60;0.70;;;;;;;10.91;81.69;96868.38;4982149;28;20053;-45
2023/10/29 02:56:08;;;;;;;5.47;0.98;;;;;;;10.91;81.12;96878.72;4987454;28;20100;-51
2023/10/29 02:58:35;;;;;;;6.50;1.17;;;;;;;10.91;80.97;96878.72;4979250;28;20042;-44
2023/10/29 03:01:04;;;;;;;7.43;1.05;;;;;;;10.91;81.00;96878.72;4974239;28;20105;-51
2023/10/29 03:03:31;;;;;;;5.85;1.10;;;;;;;10.89;81.12;96885.72;4982225;28;20084;-47
2023/10/29 03:05:58;;;;;;;4.15;1.05;;;;;;;10.87;81.36;96880.63;4990941;28;20049;-49
2023/10/29 03:08:25;;;;;;;4.00;0.93;;;;;;;10.86;80.54;96883.28;4987696;28;20050;-52
2023/10/29 03:10:52;;;;;;;5.20;0.75;;;;;;;10.85;81.01;96879.03;4991027;28;20519;-48
2023/10/29 03:13:18;;;;;;;2.85;0.93;;;;;;;10.84;81.08;96877.38;4983855;28;20053;-47
2023/10/29 03:15:45;;;;;;;5.45;1.02;;;;;;;10.83;81.42;96880.88;4986462;28;20049;-45
2023/10/29 03:18:13;;;;;;;4.40;0.70;;;;;;;10.79;80.76;96883.66;4979763;28;20078;-48
2023/10/29 03:20:41;;;;;;;7.28;2.08;;;;;;;10.77;81.54;96888.06;4983417;28;20404;-43
2023/10/29 03:23:08;;;;;;;6.93;0.70;;;;;;;10.73;81.13;96891.72;4989461;28;20492;-43
2023/10/29 03:25:35;;;;;;;3.42;0.70;;;;;;;10.70;80.55;96891.09;4991094;28;20096;-46
2023/10/29 03:28:01;;;;;;;4.80;0.98;;;;;;;10.70;81.04;96897.06;4989672;28;20054;-46
2023/10/29 03:30:28;;;;;;;6.90;1.77;;;;;;;10.70;81.24;96898.84;4979214;28;20051;-46
2023/10/29 03:32:55;;;;;;;2.20;0.85;;;;;;;10.69;81.33;96904.91;4991153;28;20050;-50
2023/10/29 03:35:21;;;;;;;3.00;1.15;;;;;;;10.65;81.32;96899.09;4988619;28;20481;-45
2023/10/29 03:37:48;;;;;;;4.50;1.75;;;;;;;10.63;81.66;96916.44;4990350;28;20400;-48
2023/10/29 03:40:15;;;;;;;6.00;0.73;;;;;;;10.61;80.98;96913.09;4983475;28;20104;-49
2023/10/29 03:42:41;;;;;;;2.65;1.02;;;;;;;10.57;80.99;96912.41;4985519;28;20050;-51
2023/10/29 03:45:08;;;;;;;3.40;1.83;;;;;;;10.54;80.55;96918.59;4986686;28;20403;-47
2023/10/29 03:47:35;;;;;;;4.60;1.13;;;;;;;10.49;81.21;96919.75;4982182;28;20523;-47
2023/10/29 03:50:02;;;;;;;4.85;1.00;;;;;;;10.46;81.32;96920.75;4990820;28;20061;-46
2023/10/29 03:52:29;;;;;;;2.25;1.40;;;;;;;10.42;81.46;96924.41;4989038;28;20518;-50
2023/10/29 03:54:56;;;;;;;3.17;0.85;;;;;;;10.39;81.00;96930.56;4988286;28;20521;-48
2023/10/29 03:57:22;;;;;;;2.22;0.93;;;;;;;10.34;80.69;96934.31;4979952;28;20050;-46
2023/10/29 03:59:49;;;;;;;4.53;2.05;;;;;;;10.30;80.68;96928.44;4982156;28;20447;-44
2023/10/29 04:02:15;;;;;;;2.92;0.50;;;;;;;10.26;80.23;96925.19;4985632;28;20049;-41
2023/10/29 04:04:42;;;;;;;1.98;0.60;;;;;;;10.24;81.25;96931.38;4990292;28;20043;-46
2023/10/29 04:07:19;;;;;;;4.78;1.48;;;;;;;10.21;81.33;96929.78;4988854;28;20149;-52
2023/10/29 04:09:46;;;;;;;1.42;0.55;;;;;;;10.17;80.78;96930.84;4990015;28;20056;-47
2023/10/29 04:12:13;;;;;;;7.15;0.93;;;;;;;10.15;80.85;96943.88;4986058;28;20061;-45
2023/10/29 04:14:42;;;;;;;4.03;0.82;;;;;;;10.11;80.61;96951.84;4992258;28;20050;-43
2023/10/29 04:17:09;;;;;;;3.35;0.77;;;;;;;10.09;80.72;96948.50;4990035;28;20073;-49
2023/10/29 04:19:39;;;;;;;6.15;0.95;;;;;;;10.07;80.32;96951.19;4990560;28;20046;-47
2023/10/29 04:22:05;;;;;;;8.65;1.00;;;;;;;10.07;81.00;96952.91;4986390;28;20054;-46
2023/10/29 04:24:33;;;;;;;2.75;0.82;;;;;;;10.05;80.40;96958.16;4990111;28;20451;-48
2023/10/29 04:27:00;;;;;;;4.30;1.15;;;;;;;10.03;80.62;96958.25;4990770;28;20046;-46
2023/10/29 04:29:26;;;;;;;3.30;0.50;;;;;;;10.01;80.68;96965.25;4990355;28;20503;-46
2023/10/29 04:31:53;;;;;;;2.60;0.52;;;;;;;10.00;80.41;96973.91;4987575;28;20069;-49
2023/10/29 04:34:20;;;;;;;5.28;0.60;;;;;;;9.98;81.02;96982.66;4986996;28;20050;-44
2023/10/29 04:36:51;;;;;;;5.13;1.05;;;;;;;9.96;80.40;96980.13;4989558;28;20047;-50
2023/10/29 04:39:19;;;;;;;6.53;0.95;;;;;;;9.96;80.59;96982.72;4989133;28;20047;-50
2023/10/29 04:41:47;;;;;;;3.05;0.82;;;;;;;9.96;80.86;96989.66;4989410;28;20039;-52
2023/10/29 04:44:14;;;;;;;6.50;0.93;;;;;;;9.93;80.41;96985.44;4989525;28;20535;-48
2023/10/29 04:46:40;;;;;;;2.58;0.70;;;;;;;9.92;80.56;96988.97;4984115;28;20047;-49
2023/10/29 04:49:07;;;;;;;7.30;1.15;;;;;;;9.91;80.58;96992.47;4990079;28;20100;-52
2023/10/29 04:51:34;;;;;;;7.38;1.13;;;;;;;9.89;80.94;96994.28;4989801;28;20061;-47
2023/10/29 04:54:00;;;;;;;5.00;0.85;;;;;;;9.89;80.96;96994.28;4984344;28;20053;-43
2023/10/29 04:56:27;;;;;;;9.40;3.40;;;;;;;9.83;80.82;96994.59;4988700;28;20676;-54
2023/10/29 04:58:54;;;;;;;4.88;1.20;;;;;;;9.82;80.19;96992.91;4987285;28;20042;-50
2023/10/29 05:01:21;;;;;;;3.22;1.42;;;;;;;9.80;80.62;96999.91;4981190;28;20054;-51
2023/10/29 05:03:48;;;;;;;5.47;0.82;;;;;;;9.79;80.36;97000.81;4987952;28;20049;-48
2023/10/29 05:06:19;;;;;;;7.40;1.13;;;;;;;9.78;80.29;96997.41;4987480;28;20054;-46
2023/10/29 05:08:46;;;;;;;4.07;0.82;;;;;;;9.75;80.29;96994.94;4985347;28;20047;-50
2023/10/29 05:11:13;;;;;;;9.20;0.90;;;;;;;9.73;80.19;96995.03;4985141;28;20050;-44
2023/10/29 05:13:40;;;;;;;2.72;1.05;;;;;;;9.70;80.74;96997.78;4987043;28;20461;-48
2023/10/29 05:16:08;;;;;;;4.35;1.02;;;;;;;9.69;80.38;97003.84;4987569;28;20049;-44
2023/10/29 05:18:35;;;;;;;3.80;0.70;;;;;;;9.67;80.55;97010.84;4988608;28;20555;-42
2023/10/29 05:21:02;;;;;;;3.90;0.70;;;;;;;9.66;80.83;97009.16;4979922;28;20082;-49
2023/10/29 05:23:29;;;;;;;2.40;0.70;;;;;;;9.63;80.38;97011.91;4987361;28;20058;-48
2023/10/29 05:25:56;;;;;;;9.77;1.65;;;;;;;9.61;80.58;97005.97;4983983;28;20138;-44
2023/10/29 05:28:22;;;;;;;5.10;0.68;;;;;;;9.58;80.49;97006.09;4984983;28;20113;-43
2023/10/29 05:30:49;;;;;;;4.15;0.82;;;;;;;9.56;80.37;97002.75;4988145;28;20042;-49
2023/10/29 05:33:16;;;;;;;2.15;0.70;;;;;;;9.51;80.44;97005.56;4984345;28;20054;-54
2023/10/29 05:35:43;;;;;;;5.32;0.80;;;;;;;9.48;80.36;97011.72;4989166;28;20053;-46
2023/10/29 05:38:10;;;;;;;3.65;0.75;;;;;;;9.45;80.04;97021.34;4987842;28;20053;-45
2023/10/29 05:40:36;;;;;;;6.32;0.98;;;;;;;9.42;80.45;97017.16;4986947;28;20049;-50
2023/10/29 05:43:03;;;;;;;2.55;0.63;;;;;;;9.38;80.15;97015.63;4988677;28;20058;-49
2023/10/29 05:45:30;;;;;;;5.25;0.95;;;;;;;9.35;80.55;97015.78;4988712;28;20046;-47
2023/10/29 05:47:58;;;;;;;2.05;0.65;;;;;;;9.31;80.34;97025.41;4988308;28;20057;-49
2023/10/29 05:50:25;;;;;;;7.22;0.90;;;;;;;9.31;80.15;97029.72;4986520;28;20073;-41
2023/10/29 05:52:52;;;;;;;4.10;0.90;;;;;;;9.24;80.26;97032.63;4987144;28;20161;-45
2023/10/29 05:55:22;;;;;;;4.75;0.93;;;;;;;9.22;80.64;97042.16;4982215;28;20057;-48
2023/10/29 05:57:49;;;;;;;8.00;1.33;;;;;;;9.21;79.54;97056.00;4985310;28;20042;-47
2023/10/29 06:00:17;;;;;;;1.77;0.63;;;;;;;9.18;80.33;97052.72;4987747;28;20054;-50
2023/10/29 06:02:44;;;;;;;3.45;0.88;;;;;;;9.14;80.51;97059.75;4986943;28;20042;-42
2023/10/29 06:05:11;;;;;;;5.00;0.70;;;;;;;9.12;80.44;97059.00;4987797;28;20105;-46
2023/10/29 06:07:42;;;;;;;2.90;0.65;;;;;;;9.10;79.95;97065.97;4988164;28;20105;-46
2023/10/29 06:10:13;;;;;;;4.57;0.80;;;;;;;9.07;80.57;97068.69;4988128;28;20046;-45
2023/10/29 06:12:40;;;;;;;5.10;1.05;;;;;;;9.04;79.76;97084.31;4985332;28;20042;-49
2023/10/29 06:15:09;;;;;;;2.95;1.48;;;;;;;9.02;80.15;97086.13;4989025;28;20411;-46
2023/10/29 06:17:35;;;;;;;4.60;0.77;;;;;;;8.98;80.35;97080.25;4984991;28;20129;-51
2023/10/29 06:20:04;;;;;;;3.03;0.47;;;;;;;8.95;80.43;97076.06;4982386;28;20050;-46
2023/10/29 06:22:32;;;;;;;5.30;0.80;;;;;;;8.92;80.31;97083.94;4977707;28;20054;-44
2023/10/29 06:24:59;;;;;;;2.38;0.40;;;;;;;8.90;79.83;97088.34;4979508;28;20066;-46
2023/10/29 06:27:26;;;;;;;3.05;0.80;;;;;;;8.88;79.82;97079.81;4986220;28;20065;-48
2023/10/29 06:29:52;;;;;;;6.55;1.15;;;;;;;8.84;81.05;97080.84;4988615;28;20050;-47
2023/10/29 06:32:20;;;;;;;4.72;0.55;;;;;;;8.79;80.06;97083.66;4976120;28;20054;-45
2023/10/29 06:34:46;;;;;;;4.32;0.60;;;;;;;8.76;79.97;97091.53;4985028;28;20081;-48
2023/10/29 06:37:13;;;;;;;2.42;0.30;;;;;;;8.74;80.26;97098.47;4986608;28;20050;-49
2023/10/29 06:39:40;;;;;;;2.55;0.70;;;;;;;8.72;80.53;97101.13;4991283;28;20050;-45
2023/10/29 06:42:07;;;;;;;7.07;1.15;;;;;;;8.70;79.84;97097.78;4985400;28;20051;-47
2023/10/29 06:44:33;;;;;;;2.55;0.50;;;;;;;8.69;80.63;97105.59;4986003;28;20138;-47
2023/10/29 06:47:00;;;;;;;3.85;0.52;;;;;;;8.65;79.82;97117.75;4983421;28;20134;-47
2023/10/29 06:49:28;;;;;;;4.22;0.70;;;;;;;8.63;80.32;97117.00;4990287;28;20046;-45
2023/10/29 06:51:55;;;;;;;3.13;0.85;;;;;;;8.63;80.73;97127.31;4987056;28;20054;-49
2023/10/29 06:54:22;;;;;;;5.63;0.55;;;;;;;8.59;79.79;97128.34;4991512;28;20504;-53
2023/10/29 06:56:48;;;;;;;4.72;0.75;;;;;;;8.58;79.96;97135.25;4990774;28;20057;-44
2023/10/29 06:59:15;;;;;;;4.50;0.70;;;;;;;8.57;80.09;97132.72;4985034;28;20050;-41
2023/10/29 07:01:42;;;;;;;1.70;0.60;;;;;;;8.57;80.41;97140.47;4975207;28;20053;-47
2023/10/29 07:04:09;;;;;;;2.28;1.05;;;;;;;8.57;80.05;97137.88;4990032;28;20136;-49
2023/10/29 07:06:36;;;;;;;1.48;0.50;;;;;;;8.57;80.42;97143.03;4984966;28;20046;-51
2023/10/29 07:09:03;;;;;;;1.73;0.75;;;;;;;8.56;80.40;97147.38;4990985;28;20538;-43
2023/10/29 07:11:30;;;;;;;3.92;0.93;;;;;;;8.57;80.39;97151.63;4988623;28;20101;-44
2023/10/29 07:13:57;;;;;;;4.85;1.20;;;;;;;8.57;80.76;97158.53;4991305;28;20046;-45
2023/10/29 07:16:24;;;;;;;3.30;0.63;;;;;;;8.58;80.02;97161.03;4990578;28;20050;-49
2023/10/29 07:18:51;;;;;;;5.13;0.70;;;;;;;8.60;80.04;97163.56;4991026;28;20064;-46
2023/10/29 07:21:18;;;;;;;0.82;0.70;;;;;;;8.62;80.82;97172.09;4986419;28;20042;-46
2023/10/29 07:23:45;;;;;;;2.67;0.52;;;;;;;8.65;80.09;97161.63;4991746;28;20042;-47
2023/10/29 07:26:13;;;;;;;4.43;0.73;;;;;;;8.69;80.49;97163.22;4991482;28;20078;-46
2023/10/29 07:28:41;;;;;;;3.28;0.40;;;;;;;8.71;80.24;97161.38;4986082;28;20046;-50
2023/10/29 07:31:07;;;;;;;4.90;0.77;;;;;;;8.76;79.47;97168.09;4985662;28;20053;-46
2023/10/29 07:33:34;;;;;;;4.07;0.38;;;;;;;8.78;79.81;97171.47;4991323;28;20050;-52
2023/10/29 07:36:03;;;;;;;1.70;0.47;;;;;;;8.82;80.62;97167.84;4985752;28;20051;-43
2023/10/29 07:38:30;;;;;;;1.60;0.70;;;;;;;8.85;80.08;97172.88;4985722;28;20074;-51
2023/10/29 07:40:57;;;;;;;5.88;2.50;;;;;;;9.02;80.03;97179.06;4989614;28;20412;-47
2023/10/29 07:43:25;;;;;;;3.63;1.48;;;;;;;9.22;79.87;97176.47;4989656;28;20392;-42
2023/10/29 07:45:52;;;;;;;6.32;0.68;;;;;;;9.35;80.36;97183.66;4986772;28;20593;-43
2023/10/29 07:48:21;;;;;;;2.03;0.73;;;;;;;9.62;79.67;97183.34;4989830;28;20050;-51
2023/10/29 07:50:51;;;;;;;3.67;1.25;;;;;;;10.05;79.68;97190.03;4983125;28;20462;-46
2023/10/29 07:53:19;;;;;;;;;;;;;;;10.31;78.58;97185.41;4984426;28;20114;-45
2023/10/29 07:55:46;;;;;;;5.88;0.60;;;;;;;10.66;78.76;97190.63;4974077;28;19925;-48
2023/10/29 07:58:13;;;;;;;2.10;0.80;;;;;;;10.84;77.50;97182.88;4980231;28;20061;-46
2023/10/29 08:00:40;;;;;;;0.95;0.38;;;;;;;10.89;76.92;97186.06;4981807;28;20057;-44
2023/10/29 08:03:07;;;;;;;1.42;0.68;;;;;;;10.91;77.70;97189.44;4978380;28;20050;-45
2023/10/29 08:05:34;;;;;;;4.93;0.80;;;;;;;10.90;77.00;97192.91;4973426;28;20050;-50
2023/10/29 08:08:01;;;;;;;2.38;0.60;;;;;;;10.99;77.41;97194.22;4978043;28;20732;-47
2023/10/29 08:10:28;;;;;;;1.15;0.65;;;;;;;11.14;76.77;97195.19;4976322;28;20084;-47
2023/10/29 08:12:55;;;;;;;6.80;1.33;;;;;;;11.36;76.74;97199.28;4976360;28;20073;-48
2023/10/29 08:15:21;;;;;;;3.33;0.95;;;;;;;11.57;76.51;97199.91;4981777;28;20076;-49
2023/10/29 08:17:48;;;;;;;2.40;0.88;;;;;;;11.71;76.42;97204.34;4982961;28;20057;-43
2023/10/29 08:20:15;;;;;;;2.25;0.63;;;;;;;11.88;76.38;97200.00;4985163;28;20054;-46
2023/10/29 08:22:42;;;;;;;8.02;1.00;;;;;;;11.96;77.09;97196.09;4986374;28;20038;-44
2023/10/29 08:25:11;;;;;;;4.38;0.68;;;;;;;12.14;77.71;97205.56;4990720;28;20125;-47
2023/10/29 08:27:38;;;;;;;3.45;0.65;;;;;;;12.62;77.22;97209.88;4990512;28;20050;-48
2023/10/29 08:30:08;;;;;;;3.08;0.93;;;;;;;13.18;77.08;97206.69;4991113;28;20049;-52
2023/10/29 08:32:35;;;;;;;3.80;2.17;;;;;;;13.61;77.60;97214.53;4982163;28;20419;-48
2023/10/29 08:35:02;;;;;;;5.32;0.70;;;;;;;14.13;76.31;97214.84;4987539;28;20096;-44
2023/10/29 08:37:29;;;;;;;3.08;0.75;;;;;;;14.87;74.94;97216.28;4985076;28;20046;-45
2023/10/29 08:39:57;;;;;;;6.00;1.13;;;;;;;15.49;73.25;97228.72;4982490;28;20046;-47
2023/10/29 08:42:24;;;;;;;2.58;0.88;;;;;;;15.76;73.44;97225.16;4986192;28;20046;-48
2023/10/29 08:44:55;;;;;;;2.28;0.65;;;;;;;16.01;72.97;97224.28;4990141;28;20039;-46
2023/10/29 08:47:23;;;;;;;3.67;1.92;;;;;;;16.55;73.23;97227.44;4989537;28;20404;-48
2023/10/29 08:49:50;;;;;;;4.20;0.82;;;;;;;17.34;70.93;97230.47;4981414;28;20053;-45
2023/10/29 08:52:18;;;;;;;3.55;2.30;;;;;;;18.04;69.51;97240.00;4982392;28;20058;-46
2023/10/29 08:54:45;;;;;;;1.38;0.93;;;;;;;18.60;67.92;97236.44;4987902;28;20059;-51
2023/10/29 08:57:12;;;;;;;7.18;0.98;;;;;;;18.98;66.29;97236.88;4982133;28;20069;-52
2023/10/29 08:59:39;;;;;;;4.25;1.15;;;;;;;19.41;65.91;97239.50;4978399;28;20058;-44
2023/10/29 09:02:07;;;;;;;3.65;0.93;;;;;;;19.76;64.02;97234.84;4980368;28;20101;-42
2023/10/29 09:04:38;;;;;;;2.78;0.98;;;;;;;20.28;64.33;97232.16;4979089;28;20057;-48
2023/10/29 09:07:06;;;;;;;4.63;0.82;;;;;;;20.74;63.84;97236.88;4975036;28;20050;-46
2023/10/29 09:09:33;;;;;;;7.82;0.75;;;;;;;21.27;62.85;97233.94;4981772;28;20055;-42
2023/10/29 09:11:59;;;;;;;4.90;1.35;;;;;;;21.92;62.82;97232.41;4974998;28;20047;-47
2023/10/29 09:14:26;;;;;;;2.28;1.88;;;;;;;22.52;63.39;97233.69;4974374;28;20669;-50
2023/10/29 09:16:52;;;;;;;3.40;1.20;;;;;;;23.23;62.16;97232.97;4977159;28;20141;-44
2023/10/29 09:19:20;;;;;;;4.60;0.88;;;;;;;23.74;59.91;97240.22;4974958;28;20050;-50
2023/10/29 09:21:47;;;;;;;2.28;0.77;;;;;;;23.95;56.76;97242.47;4976354;28;20062;-53
2023/10/29 09:24:15;;;;;;;3.85;0.68;;;;;;;23.93;54.87;97244.47;4985964;28;20495;-44
2023/10/29 09:26:42;;;;;;;3.03;0.70;;;;;;;23.97;54.40;97250.25;4988224;28;20069;-45
2023/10/29 09:29:08;;;;;;;3.33;1.10;;;;;;;24.10;54.78;97255.94;4985018;28;20054;-49
2023/10/29 09:31:35;;;;;;;5.57;1.02;;;;;;;24.20;53.37;97255.00;4987089;28;20046;-49
2023/10/29 09:34:03;;;;;;;6.40;1.48;;;;;;;24.30;52.38;97266.28;4986975;28;20050;-46
2023/10/29 09:36:30;;;;;;;5.93;0.80;;;;;;;24.37;51.42;97262.00;4988054;28;20050;-44
2023/10/29 09:38:57;;;;;;;5.13;0.60;;;;;;;24.42;51.28;97258.03;4988104;28;20108;-50
2023/10/29 09:41:24;;;;;;;3.78;0.82;;;;;;;24.61;50.96;97265.69;4979592;28;20615;-45
2023/10/29 09:43:53;;;;;;;4.07;1.52;;;;;;;24.64;50.32;97268.00;4988726;28;20471;-52
2023/10/29 09:46:21;;;;;;;3.70;0.93;;;;;;;24.50;49.16;97271.28;4982152;28;20104;-42
2023/10/29 09:48:48;;;;;;;2.40;1.33;;;;;;;24.38;48.47;97263.66;4968177;28;20454;-46
2023/10/29 09:51:15;;;;;;;3.63;0.65;;;;;;;24.42;48.50;97263.34;4986644;28;20058;-49
2023/10/29 09:53:42;;;;;;;5.15;1.48;;;;;;;24.32;47.85;97259.00;4988811;28;20046;-47
2023/10/29 09:56:10;;;;;;;2.65;0.73;;;;;;;24.23;48.11;97270.53;4987186;28;20064;-49
2023/10/29 09:58:37;;;;;;;4.20;0.98;;;;;;;24.23;48.06;97262.63;4987480;28;20142;-50
2023/10/29 10:01:04;;;;;;;4.60;1.23;;;;;;;24.40;48.97;97260.84;4984900;28;20048;-47
2023/10/29 10:03:31;;;;;;;2.33;0.60;;;;;;;24.55;48.09;97270.81;4978857;28;20049;-48
2023/10/29 10:05:59;;;;;;;2.15;1.00;;;;;;;24.43;47.10;97270.28;4986680;28;20479;-48
2023/10/29 10:08:27;;;;;;;4.68;1.00;;;;;;;24.11;46.52;97272.59;4981803;28;20492;-47
2023/10/29 10:10:55;;;;;;;7.22;1.20;;;;;;;23.92;47.52;97268.41;4983065;28;20668;-43
2023/10/29 10:13:41;;;;;;;3.50;0.95;;;;;;;23.66;46.10;97270.09;4982189;28;20054;-42
2023/10/29 10:16:10;;;;;;;4.30;1.33;;;;;;;23.40;46.95;97275.38;4987968;28;20141;-47
2023/10/29 10:18:55;;;;;;;7.25;0.57;;;;;;;23.05;47.05;97273.44;4981970;28;20057;-50
2023/10/29 10:21:26;;;;;;;5.97;1.02;;;;;;;22.80;47.37;97275.84;4984935;28;20050;-50
2023/10/29 10:23:55;;;;;;;;;;;;;;;22.72;47.34;97288.97;4987009;28;20639;-48
2023/10/29 10:26:27;;;;;;;;;;;;;;;22.77;47.15;97278.81;4985305;28;19969;-51
2023/10/29 10:28:56;;;;;;;6.60;0.82;;;;;;;22.73;47.53;97280.91;4984466;28;19961;-54
2023/10/29 10:31:23;;;;;;;5.53;0.65;;;;;;;22.63;47.67;97284.59;4987773;28;20455;-52
2023/10/29 10:33:49;;;;;;;2.45;1.20;;;;;;;22.27;47.51;97280.91;4978571;28;21992;-51
2023/10/29 10:36:30;;;;;;;5.35;0.82;;;;;;;21.83;49.89;97284.16;4984461;28;20054;-48
2023/10/29 10:38:57;;;;;;;2.90;0.68;;;;;;;21.45;49.60;97286.72;4977615;28;20053;-46
2023/10/29 10:41:24;;;;;;;2.63;0.75;;;;;;;20.96;49.97;97292.84;4981334;28;20146;-49
2023/10/29 10:44:12;;;;;;;5.03;0.75;;;;;;;20.36;49.96;97293.72;4986543;28;20554;-53
2023/10/29 10:46:47;;;;;;;6.18;0.90;;;;;;;19.94;50.95;97292.84;4985754;28;20503;-48
2023/10/29 10:49:15;;;;;;;4.30;0.73;;;;;;;19.55;51.61;97297.91;4978097;28;20057;-50
2023/10/29 10:51:42;;;;;;;2.35;0.65;;;;;;;19.13;52.23;97286.44;4978194;28;20054;-52
2023/10/29 10:54:09;;;;;;;5.95;0.80;;;;;;;18.79;52.99;97282.13;4980235;28;20092;-52
2023/10/29 10:56:37;;;;;;;4.78;1.52;;;;;;;18.56;53.72;97291.84;4984768;28;20113;-48
2023/10/29 10:59:06;;;;;;;4.15;1.10;;;;;;;18.32;54.63;97290.22;4981597;28;20054;-48
2023/10/29 11:01:35;;;;;;;3.47;1.02;;;;;;;18.04;54.72;97292.38;4985877;28;20499;-49
2023/10/29 11:04:03;;;;;;;3.38;0.80;;;;;;;17.83;55.59;97295.66;4979560;28;20126;-55
2023/10/29 11:06:31;;;;;;;2.35;0.80;;;;;;;17.65;55.83;97298.75;4984298;28;20575;-51
2023/10/29 11:08:59;;;;;;;2.95;1.35;;;;;;;17.47;55.79;97296.59;4983344;28;20049;-47
2023/10/29 11:11:32;;;;;;;7.80;1.08;;;;;;;17.30;56.32;97297.03;4987309;28;20050;-47
2023/10/29 11:14:09;;;;;;;5.53;1.08;;;;;;;17.08;57.01;97293.38;4985918;28;20054;-49
2023/10/29 11:16:47;;;;;;;5.28;1.20;;;;;;;16.91;56.86;97300.66;4985868;28;20050;-49
2023/10/29 11:27:45;;;;;;;3.38;1.17;;;;;;;16.19;58.64;97297.88;5047452;28;20423;-50
2023/10/29 11:30:20;;;;;;;3.03;0.90;;;;;;;16.04;59.17;97296.31;5016128;28;20077;-49
2023/10/29 11:35:43;;;;;;;7.88;2.67;;;;;;;15.77;59.83;97294.69;5080099;27;20390;-47
2023/10/29 11:38:31;;;;;;;4.22;2.33;;;;;;;15.60;59.97;97294.03;5006840;28;20050;-46
2023/10/29 11:40:58;;;;;;;5.85;1.80;;;;;;;15.52;60.06;97293.72;5008336;28;20483;-51
2023/10/29 11:43:25;;;;;;;5.30;2.25;;;;;;;15.44;60.76;97298.63;5006708;28;20064;-47
2023/10/29 11:48:33;;;;;;;3.92;0.63;;;;;;;15.20;61.28;97296.72;5049839;27;20397;-50
2023/10/29 11:53:39;;;;;;;5.07;1.67;;;;;;;15.42;60.71;97291.75;5040640;28;20413;-44
2023/10/29 11:56:10;;;;;;;5.78;2.25;;;;;;;15.09;61.49;97298.25;5006777;28;20050;-49